Terminal Aerodrome Forecast
Issued by NWS

Home | Current Version | Previous Version | Graphics & Text | Print | Product List | Glossary Off
Versions: 1 2 3 4 5 6 7 8 9 10 11 12 13 14 15

000
FTUS43 KDDC 030520
TAFGCK
TAF
KGCK 030520Z 0306/0406 21007KT P6SM BKN150
     FM030900 27008KT P6SM OVC100
     FM031200 30008KT P6SM BKN100
     FM031500 34015G25KT P6SM SCT070
     FM040000 36010KT P6SM SKC=

USA.gov is the U.S. government's official web portal to all federal, state and local government web resources and services.